Flag for USA

Past Weather in Gainesville, Georgia, USA — Yesterday and Last 2 Weeks

Currently: 53 °F. Fog. (Weather station: Gilmer Memorial Airport, USA). See more current weather

Past Weather in Gainesville — Graph

°F

Gainesville Temperature Yesterday

Maximum temperature yesterday: 68 °F (at 12:53 pm)
Minimum temperature yesterday: 50 °F (at 11:53 pm)
Average temperature yesterday: 58 °F

High & Low Weather Summary for the Past Weeks

 TemperatureHumidityPressure
High69 °F (Nov 21, 12:53 pm)100% (Nov 26, 7:53 am)30.65 "Hg (Nov 26, 7:53 am)
Low1 °F (Nov 27, 9:53 am)13% (Nov 18, 3:53 pm)30.00 "Hg (Nov 15, 1:53 pm)
Average53 °F63%30.24 "Hg
* Reported Nov 14 11:53 am — Nov 29 11:33 am, Gainesville. Weather by CustomWeather, © 2020

Note: Actual official high and low records may vary slightly from our data, if they occured in-between our weather recording intervals... More about our weather records

Gainesville Weather History for the Previous 24 Hours

Scroll right to see more
 ConditionsComfort  
Time TempWeatherWind HumidityBarometerVisibility
11:33 am
Sun, Nov 29
53 °FMostly cloudy.9 mph83%30.14 "Hg10 mi
10:53 am53 °FLow clouds.9 mph83%30.14 "Hg10 mi
10:31 am52 °FMostly cloudy.12 mph86%30.15 "Hg10 mi
9:53 am52 °FLow clouds.8 mph86%30.14 "Hg10 mi
9:27 am51 °FMore clouds than sun.10 mph89%30.15 "Hg10 mi
8:53 am51 °FLow clouds.9 mph92%30.13 "Hg7 mi
8:37 am50 °FFog.9 mph96%30.14 "Hg1 mi
7:53 am50 °FFog.7 mph93%30.12 "Hg0 mi
6:53 am49 °FFog.7 mph97%30.11 "Hg0 mi
5:53 am49 °FFog.5 mph93%30.10 "Hg1 mi
5:14 am49 °FPassing clouds.3 mph86%30.11 "Hg10 mi
4:53 am49 °FPartly cloudy.3 mph86%30.09 "Hg10 mi
4:04 am48 °FMostly cloudy.5 mph89%30.11 "Hg10 mi
3:53 am48 °FPassing clouds.No wind86%30.09 "Hg10 mi
3:22 am48 °FPassing clouds.5 mph86%30.11 "Hg10 mi
3:13 am48 °FPassing clouds.6 mph86%30.12 "Hg10 mi
2:53 am49 °FClear.3 mph86%30.09 "Hg10 mi
1:53 am50 °FClear.No wind83%30.09 "Hg10 mi
12:53 am52 °FClear.6 mph77%30.11 "Hg10 mi
11:53 pm
Sat, Nov 28
50 °FClear.No wind83%30.11 "Hg10 mi
10:53 pm51 °FClear.No wind80%30.10 "Hg10 mi
9:53 pm53 °FClear.No wind77%30.11 "Hg10 mi
8:53 pm54 °FClear.No wind72%30.10 "Hg10 mi
7:53 pm55 °FClear.No wind67%30.09 "Hg10 mi
6:53 pm59 °FClear.3 mph54%30.07 "Hg10 mi
5:53 pm59 °FClear.3 mph54%30.07 "Hg10 mi
4:53 pm63 °FSunny.5 mph45%30.06 "Hg10 mi
3:53 pm66 °FSunny.5 mph42%30.04 "Hg10 mi
2:53 pm67 °FSunny.No wind41%30.04 "Hg10 mi
1:53 pm68 °FSunny.No wind39%30.06 "Hg10 mi
12:53 pm68 °FSunny.8 mph42%30.05 "Hg10 mi
Weather by CustomWeather, © 2020

See weather overview